首页
METAR-TAF:

METAR-TAF

机场 :

Parsons, 田纳西州, 美国

纬度: 35-39-23N, 经度: 088-11-43W, 海拔: 149米

当前天气观测

该预报发布于23分钟前的19:15 UTC
风速10节,风向西转西南,有时为16节阵风
温度 32°C
湿度 43%
气压 1020 hPa
少量云层高于6000英尺

METAR: KPVE 251915Z AUTO 25010G16KT FEW060 32/18 A3011 RMK A01

时间: 14:38 (19:38 UTC)


TAF: 丢失

超过4000个机场的气象观测和天气预报(METAR&TAF报告)。

可查询的气象台以黄色和红色小点在地图上表示。

将鼠标移到小点上方,可查看气象台名称。

然后点击查看天气观测和预报。

如需切换地图:点击带黑十字的绿色按钮放大地图;点击带横线的绿色按钮缩小地图;或者点击绿色箭头查看邻近地区的地图。


METAR-TAF: